sensor_id;sensor_type;location;lat;lon;timestamp;pressure;altitude;pressure_sealevel;temperature;humidity
23446;BME280;11895;48.738;9.320;2023-04-20T00:05:30;98784.44;;;5.85;100.00
23446;BME280;11895;48.738;9.320;2023-04-20T00:07:58;98776.56;;;5.79;100.00
23446;BME280;11895;48.738;9.320;2023-04-20T00:10:27;98781.34;;;5.68;100.00
23446;BME280;11895;48.738;9.320;2023-04-20T00:12:55;98768.91;;;5.67;100.00
23446;BME280;11895;48.738;9.320;2023-04-20T00:15:23;98767.41;;;5.57;100.00
23446;BME280;11895;48.738;9.320;2023-04-20T00:17:51;98762.06;;;5.57;100.00
23446;BME280;11895;48.738;9.320;2023-04-20T00:20:20;98767.31;;;5.60;100.00
23446;BME280;11895;48.738;9.320;2023-04-20T00:22:47;98768.31;;;5.56;100.00
23446;BME280;11895;48.738;9.320;2023-04-20T00:25:15;98762.22;;;5.51;100.00
23446;BME280;11895;48.738;9.320;2023-04-20T00:27:44;98756.84;;;5.52;100.00
23446;BME280;11895;48.738;9.320;2023-04-20T00:30:12;98750.66;;;5.50;100.00
23446;BME280;11895;48.738;9.320;2023-04-20T00:32:40;98757.03;;;5.45;100.00
23446;BME280;11895;48.738;9.320;2023-04-20T00:35:08;98746.47;;;5.41;100.00
23446;BME280;11895;48.738;9.320;2023-04-20T00:37:36;98745.66;;;5.38;100.00
23446;BME280;11895;48.738;9.320;2023-04-20T00:40:04;98741.19;;;5.38;100.00
23446;BME280;11895;48.738;9.320;2023-04-20T00:42:32;98740.31;;;5.38;100.00
23446;BME280;11895;48.738;9.320;2023-04-20T00:45:00;98735.16;;;5.30;100.00
23446;BME280;11895;48.738;9.320;2023-04-20T00:47:28;98738.72;;;5.31;100.00
23446;BME280;11895;48.738;9.320;2023-04-20T00:49:56;98737.84;;;5.30;100.00
23446;BME280;11895;48.738;9.320;2023-04-20T00:52:23;98721.91;;;5.27;100.00
23446;BME280;11895;48.738;9.320;2023-04-20T00:54:51;98731.69;;;5.27;100.00
23446;BME280;11895;48.738;9.320;2023-04-20T00:57:19;98719.47;;;5.18;100.00
23446;BME280;11895;48.738;9.320;2023-04-20T00:59:50;98719.44;;;5.20;100.00
23446;BME280;11895;48.738;9.320;2023-04-20T01:02:18;98714.13;;;5.18;100.00
23446;BME280;11895;48.738;9.320;2023-04-20T01:04:46;98711.59;;;5.12;100.00
23446;BME280;11895;48.738;9.320;2023-04-20T01:07:14;98711.53;;;5.15;100.00
23446;BME280;11895;48.738;9.320;2023-04-20T01:09:42;98711.72;;;5.09;100.00
23446;BME280;11895;48.738;9.320;2023-04-20T01:12:10;98713.00;;;4.57;100.00
23446;BME280;11895;48.738;9.320;2023-04-20T01:14:42;98703.41;;;4.85;100.00
23446;BME280;11895;48.738;9.320;2023-04-20T01:17:11;98692.50;;;4.95;100.00
23446;BME280;11895;48.738;9.320;2023-04-20T01:19:45;98689.78;;;4.96;100.00
23446;BME280;11895;48.738;9.320;2023-04-20T01:22:18;98692.53;;;4.93;100.00
23446;BME280;11895;48.738;9.320;2023-04-20T01:24:47;98685.56;;;4.87;100.00
23446;BME280;11895;48.738;9.320;2023-04-20T01:27:15;98679.22;;;4.92;100.00
23446;BME280;11895;48.738;9.320;2023-04-20T01:29:43;98672.91;;;4.96;100.00
23446;BME280;11895;48.738;9.320;2023-04-20T01:32:12;98669.63;;;4.84;100.00
23446;BME280;11895;48.738;9.320;2023-04-20T01:34:40;98667.31;;;4.71;100.00
23446;BME280;11895;48.738;9.320;2023-04-20T01:37:08;98667.94;;;4.45;100.00
23446;BME280;11895;48.738;9.320;2023-04-20T01:39:38;98666.34;;;4.37;100.00
23446;BME280;11895;48.738;9.320;2023-04-20T01:42:07;98658.94;;;4.50;100.00
23446;BME280;11895;48.738;9.320;2023-04-20T01:44:35;98647.16;;;4.59;100.00
23446;BME280;11895;48.738;9.320;2023-04-20T01:47:02;98656.88;;;4.61;100.00
23446;BME280;11895;48.738;9.320;2023-04-20T01:49:31;98654.16;;;4.63;100.00
23446;BME280;11895;48.738;9.320;2023-04-20T01:51:59;98650.56;;;4.64;100.00
23446;BME280;11895;48.738;9.320;2023-04-20T01:54:27;98642.72;;;4.58;100.00
23446;BME280;11895;48.738;9.320;2023-04-20T01:56:54;98641.81;;;4.59;100.00
23446;BME280;11895;48.738;9.320;2023-04-20T01:59:22;98639.16;;;4.59;100.00
23446;BME280;11895;48.738;9.320;2023-04-20T02:01:50;98636.47;;;4.59;100.00
23446;BME280;11895;48.738;9.320;2023-04-20T02:04:19;98639.25;;;4.54;100.00
23446;BME280;11895;48.738;9.320;2023-04-20T02:06:47;98632.28;;;4.49;100.00
23446;BME280;11895;48.738;9.320;2023-04-20T02:09:14;98633.22;;;4.48;100.00
23446;BME280;11895;48.738;9.320;2023-04-20T02:11:42;98638.63;;;4.45;100.00
23446;BME280;11895;48.738;9.320;2023-04-20T02:14:11;98635.16;;;4.41;100.00
23446;BME280;11895;48.738;9.320;2023-04-20T02:16:38;98633.53;;;4.34;100.00
23446;BME280;11895;48.738;9.320;2023-04-20T02:19:06;98639.09;;;4.26;100.00
23446;BME280;11895;48.738;9.320;2023-04-20T02:21:34;98635.72;;;4.18;100.00
23446;BME280;11895;48.738;9.320;2023-04-20T02:24:02;98635.66;;;4.21;100.00
23446;BME280;11895;48.738;9.320;2023-04-20T02:26:30;98632.13;;;4.19;100.00
23446;BME280;11895;48.738;9.320;2023-04-20T02:28:59;98635.66;;;4.20;100.00
23446;BME280;11895;48.738;9.320;2023-04-20T02:31:27;98638.44;;;4.15;100.00
23446;BME280;11895;48.738;9.320;2023-04-20T02:33:54;98629.69;;;4.10;100.00
23446;BME280;11895;48.738;9.320;2023-04-20T02:36:22;98622.50;;;4.13;100.00
23446;BME280;11895;48.738;9.320;2023-04-20T02:38:50;98619.88;;;4.10;100.00
23446;BME280;11895;48.738;9.320;2023-04-20T02:41:18;98624.50;;;4.04;100.00
23446;BME280;11895;48.738;9.320;2023-04-20T02:43:45;98613.84;;;4.04;100.00
23446;BME280;11895;48.738;9.320;2023-04-20T02:46:13;98621.84;;;4.04;100.00
23446;BME280;11895;48.738;9.320;2023-04-20T02:48:43;98610.31;;;4.03;100.00
23446;BME280;11895;48.738;9.320;2023-04-20T02:51:11;98611.22;;;4.01;100.00
23446;BME280;11895;48.738;9.320;2023-04-20T02:53:42;98613.53;;;3.79;100.00
23446;BME280;11895;48.738;9.320;2023-04-20T02:56:17;98610.97;;;3.74;100.00
23446;BME280;11895;48.738;9.320;2023-04-20T02:58:51;98610.19;;;3.69;100.00
23446;BME280;11895;48.738;9.320;2023-04-20T03:01:22;98619.97;;;3.69;100.00
23446;BME280;11895;48.738;9.320;2023-04-20T03:03:58;98610.31;;;2.76;100.00
23446;BME280;11895;48.738;9.320;2023-04-20T03:06:26;98613.97;;;2.69;100.00
23446;BME280;11895;48.738;9.320;2023-04-20T03:08:56;98606.16;;;3.08;100.00
23446;BME280;11895;48.738;9.320;2023-04-20T03:11:54;98597.16;;;3.15;100.00
23446;BME280;11895;48.738;9.320;2023-04-20T03:14:44;98602.28;;;3.24;100.00
23446;BME280;11895;48.738;9.320;2023-04-20T03:17:13;98595.09;;;3.29;100.00
23446;BME280;11895;48.738;9.320;2023-04-20T03:19:40;98596.00;;;3.27;100.00
23446;BME280;11895;48.738;9.320;2023-04-20T03:22:08;98588.72;;;3.37;100.00
23446;BME280;11895;48.738;9.320;2023-04-20T03:24:37;98593.00;;;3.44;100.00
23446;BME280;11895;48.738;9.320;2023-04-20T03:27:15;98587.75;;;3.41;100.00
23446;BME280;11895;48.738;9.320;2023-04-20T03:29:59;98585.31;;;3.30;100.00
23446;BME280;11895;48.738;9.320;2023-04-20T03:32:27;98576.13;;;3.45;100.00
23446;BME280;11895;48.738;9.320;2023-04-20T03:34:59;98573.25;;;3.54;100.00
23446;BME280;11895;48.738;9.320;2023-04-20T03:37:26;98574.03;;;3.57;100.00
23446;BME280;11895;48.738;9.320;2023-04-20T03:39:54;98572.38;;;3.53;100.00
23446;BME280;11895;48.738;9.320;2023-04-20T03:42:22;98571.41;;;3.56;100.00
23446;BME280;11895;48.738;9.320;2023-04-20T03:44:49;98562.50;;;3.57;100.00
23446;BME280;11895;48.738;9.320;2023-04-20T03:47:17;98560.81;;;3.54;100.00
23446;BME280;11895;48.738;9.320;2023-04-20T03:49:44;98562.59;;;3.54;100.00
23446;BME280;11895;48.738;9.320;2023-04-20T03:52:12;98563.47;;;3.54;100.00
23446;BME280;11895;48.738;9.320;2023-04-20T03:54:40;98567.84;;;3.57;100.00
23446;BME280;11895;48.738;9.320;2023-04-20T03:57:10;98559.91;;;3.55;100.00
23446;BME280;11895;48.738;9.320;2023-04-20T03:59:39;98555.50;;;3.53;100.00
23446;BME280;11895;48.738;9.320;2023-04-20T04:02:09;98555.50;;;3.54;100.00
23446;BME280;11895;48.738;9.320;2023-04-20T04:04:42;98555.44;;;3.56;100.00
23446;BME280;11895;48.738;9.320;2023-04-20T04:07:10;98563.53;;;3.51;100.00
23446;BME280;11895;48.738;9.320;2023-04-20T04:09:40;98568.28;;;3.39;100.00
23446;BME280;11895;48.738;9.320;2023-04-20T04:12:08;98565.47;;;3.45;100.00
23446;BME280;11895;48.738;9.320;2023-04-20T04:14:37;98566.31;;;3.47;100.00
23446;BME280;11895;48.738;9.320;2023-04-20T04:17:05;98564.59;;;3.43;100.00
23446;BME280;11895;48.738;9.320;2023-04-20T04:19:36;98560.06;;;3.48;100.00
23446;BME280;11895;48.738;9.320;2023-04-20T04:22:04;98564.50;;;3.49;100.00
23446;BME280;11895;48.738;9.320;2023-04-20T04:24:37;98565.38;;;3.49;100.00
23446;BME280;11895;48.738;9.320;2023-04-20T04:27:16;98564.34;;;3.55;100.00
23446;BME280;11895;48.738;9.320;2023-04-20T04:29:52;98559.16;;;3.49;100.00
23446;BME280;11895;48.738;9.320;2023-04-20T04:32:22;98575.16;;;3.49;100.00
23446;BME280;11895;48.738;9.320;2023-04-20T04:34:53;98566.25;;;3.50;100.00
23446;BME280;11895;48.738;9.320;2023-04-20T04:37:22;98574.19;;;3.51;100.00
23446;BME280;11895;48.738;9.320;2023-04-20T04:39:53;98574.28;;;3.48;100.00
23446;BME280;11895;48.738;9.320;2023-04-20T04:42:34;98577.03;;;3.44;100.00
23446;BME280;11895;48.738;9.320;2023-04-20T04:45:05;98572.69;;;3.40;100.00
23446;BME280;11895;48.738;9.320;2023-04-20T04:47:36;98565.47;;;3.43;100.00
23446;BME280;11895;48.738;9.320;2023-04-20T04:50:07;98569.44;;;3.25;100.00
23446;BME280;11895;48.738;9.320;2023-04-20T04:52:36;98568.28;;;3.39;100.00
23446;BME280;11895;48.738;9.320;2023-04-20T04:55:04;98569.72;;;3.52;100.00
23446;BME280;11895;48.738;9.320;2023-04-20T04:57:35;98563.59;;;3.50;100.00
23446;BME280;11895;48.738;9.320;2023-04-20T05:00:05;98563.53;;;3.51;100.00
23446;BME280;11895;48.738;9.320;2023-04-20T05:02:38;98570.31;;;3.66;100.00
23446;BME280;11895;48.738;9.320;2023-04-20T05:05:07;98568.50;;;3.67;100.00
23446;BME280;11895;48.738;9.320;2023-04-20T05:07:36;98565.75;;;3.71;100.00
23446;BME280;11895;48.738;9.320;2023-04-20T05:10:06;98563.94;;;3.73;100.00
23446;BME280;11895;48.738;9.320;2023-04-20T05:12:34;98573.47;;;3.82;100.00
23446;BME280;11895;48.738;9.320;2023-04-20T05:15:02;98569.13;;;3.79;100.00
23446;BME280;11895;48.738;9.320;2023-04-20T05:17:31;98563.50;;;3.92;100.00
23446;BME280;11895;48.738;9.320;2023-04-20T05:19:58;98567.22;;;3.84;100.00
23446;BME280;11895;48.738;9.320;2023-04-20T05:22:26;98574.66;;;3.70;100.00
23446;BME280;11895;48.738;9.320;2023-04-20T05:24:54;98574.16;;;3.92;100.00
23446;BME280;11895;48.738;9.320;2023-04-20T05:27:22;98571.56;;;3.89;100.00
23446;BME280;11895;48.738;9.320;2023-04-20T05:29:50;98568.75;;;3.95;100.00
23446;BME280;11895;48.738;9.320;2023-04-20T05:32:18;98560.72;;;3.96;100.00
23446;BME280;11895;48.738;9.320;2023-04-20T05:34:45;98566.63;;;4.09;100.00
23446;BME280;11895;48.738;9.320;2023-04-20T05:37:14;98564.63;;;4.19;100.00
23446;BME280;11895;48.738;9.320;2023-04-20T05:39:42;98565.47;;;4.21;100.00
23446;BME280;11895;48.738;9.320;2023-04-20T05:42:10;98561.53;;;4.35;100.00
23446;BME280;11895;48.738;9.320;2023-04-20T05:44:39;98570.28;;;4.41;100.00
23446;BME280;11895;48.738;9.320;2023-04-20T05:47:07;98566.41;;;4.52;100.00
23446;BME280;11895;48.738;9.320;2023-04-20T05:49:35;98558.13;;;4.63;100.00
23446;BME280;11895;48.738;9.320;2023-04-20T05:52:03;98565.06;;;4.70;100.00
23446;BME280;11895;48.738;9.320;2023-04-20T05:54:30;98561.66;;;4.65;100.00
23446;BME280;11895;48.738;9.320;2023-04-20T05:56:58;98561.41;;;4.74;100.00
23446;BME280;11895;48.738;9.320;2023-04-20T05:59:26;98560.13;;;4.87;100.00
23446;BME280;11895;48.738;9.320;2023-04-20T06:01:54;98561.66;;;4.65;100.00
23446;BME280;11895;48.738;9.320;2023-04-20T06:04:22;98570.47;;;4.67;100.00
23446;BME280;11895;48.738;9.320;2023-04-20T06:06:51;98577.00;;;4.89;100.00
23446;BME280;11895;48.738;9.320;2023-04-20T06:09:19;98564.91;;;5.07;100.00
23446;BME280;11895;48.738;9.320;2023-04-20T06:11:47;98568.03;;;5.22;100.00
23446;BME280;11895;48.738;9.320;2023-04-20T06:14:14;98561.38;;;5.36;100.00
23446;BME280;11895;48.738;9.320;2023-04-20T06:16:42;98557.53;;;5.47;100.00
23446;BME280;11895;48.738;9.320;2023-04-20T06:19:09;98554.63;;;5.54;100.00
23446;BME280;11895;48.738;9.320;2023-04-20T06:21:37;98545.25;;;5.69;100.00
23446;BME280;11895;48.738;9.320;2023-04-20T06:24:05;98538.53;;;5.85;100.00
23446;BME280;11895;48.738;9.320;2023-04-20T06:26:33;98539.81;;;6.02;100.00
23446;BME280;11895;48.738;9.320;2023-04-20T06:29:01;98535.84;;;6.13;100.00
23446;BME280;11895;48.738;9.320;2023-04-20T06:31:29;98535.28;;;6.30;100.00
23446;BME280;11895;48.738;9.320;2023-04-20T06:33:57;98528.69;;;6.40;100.00
23446;BME280;11895;48.738;9.320;2023-04-20T06:36:24;98531.28;;;6.43;100.00
23446;BME280;11895;48.738;9.320;2023-04-20T06:38:53;98532.69;;;6.54;100.00
23446;BME280;11895;48.738;9.320;2023-04-20T06:41:21;98533.66;;;6.78;100.00
23446;BME280;11895;48.738;9.320;2023-04-20T06:43:49;98532.25;;;6.91;100.00
23446;BME280;11895;48.738;9.320;2023-04-20T06:46:17;98532.69;;;7.04;100.00
23446;BME280;11895;48.738;9.320;2023-04-20T06:48:45;98525.34;;;7.09;100.00
23446;BME280;11895;48.738;9.320;2023-04-20T06:51:13;98525.78;;;7.21;100.00
23446;BME280;11895;48.738;9.320;2023-04-20T06:53:40;98529.53;;;7.39;100.00
23446;BME280;11895;48.738;9.320;2023-04-20T06:56:08;98524.72;;;7.49;100.00
23446;BME280;11895;48.738;9.320;2023-04-20T06:58:37;98519.31;;;7.51;100.00
23446;BME280;11895;48.738;9.320;2023-04-20T07:01:05;98520.88;;;7.56;100.00
23446;BME280;11895;48.738;9.320;2023-04-20T07:03:33;98520.09;;;7.53;100.00
23446;BME280;11895;48.738;9.320;2023-04-20T07:06:00;98523.22;;;7.42;100.00
23446;BME280;11895;48.738;9.320;2023-04-20T07:08:28;98517.19;;;7.59;100.00
23446;BME280;11895;48.738;9.320;2023-04-20T07:10:56;98519.09;;;7.79;100.00
23446;BME280;11895;48.738;9.320;2023-04-20T07:13:24;98520.63;;;8.06;100.00
23446;BME280;11895;48.738;9.320;2023-04-20T07:15:52;98516.16;;;8.29;100.00
23446;BME280;11895;48.738;9.320;2023-04-20T07:18:19;98521.25;;;8.57;100.00
23446;BME280;11895;48.738;9.320;2023-04-20T07:20:47;98523.66;;;8.83;100.00
23446;BME280;11895;48.738;9.320;2023-04-20T07:23:15;98525.53;;;8.81;100.00
23446;BME280;11895;48.738;9.320;2023-04-20T07:25:43;98525.94;;;8.72;100.00
23446;BME280;11895;48.738;9.320;2023-04-20T07:28:10;98519.69;;;8.29;100.00
23446;BME280;11895;48.738;9.320;2023-04-20T07:30:38;98523.72;;;8.82;100.00
23446;BME280;11895;48.738;9.320;2023-04-20T07:33:06;98518.91;;;8.27;100.00
23446;BME280;11895;48.738;9.320;2023-04-20T07:35:34;98518.16;;;8.66;100.00
23446;BME280;11895;48.738;9.320;2023-04-20T07:38:02;98513.94;;;8.81;100.00
23446;BME280;11895;48.738;9.320;2023-04-20T07:40:30;98522.78;;;8.83;100.00
23446;BME280;11895;48.738;9.320;2023-04-20T07:42:57;98515.78;;;8.16;100.00
23446;BME280;11895;48.738;9.320;2023-04-20T07:45:25;98507.81;;;8.57;100.00
23446;BME280;11895;48.738;9.320;2023-04-20T07:47:53;98516.41;;;8.85;100.00
23446;BME280;11895;48.738;9.320;2023-04-20T07:50:22;98512.63;;;8.89;100.00
23446;BME280;11895;48.738;9.320;2023-04-20T07:52:49;98517.47;;;9.01;100.00
23446;BME280;11895;48.738;9.320;2023-04-20T07:55:17;98523.88;;;9.18;100.00
23446;BME280;11895;48.738;9.320;2023-04-20T07:57:45;98521.44;;;9.32;100.00
23446;BME280;11895;48.738;9.320;2023-04-20T08:00:13;98527.25;;;9.42;100.00
23446;BME280;11895;48.738;9.320;2023-04-20T08:02:44;98521.72;;;9.26;100.00
23446;BME280;11895;48.738;9.320;2023-04-20T08:05:12;98516.59;;;9.40;100.00
23446;BME280;11895;48.738;9.320;2023-04-20T08:07:40;98521.53;;;9.49;100.00
23446;BME280;11895;48.738;9.320;2023-04-20T08:10:08;98517.59;;;9.57;100.00
23446;BME280;11895;48.738;9.320;2023-04-20T08:12:37;98510.97;;;9.26;100.00
23446;BME280;11895;48.738;9.320;2023-04-20T08:15:07;98502.34;;;9.57;100.00
23446;BME280;11895;48.738;9.320;2023-04-20T08:17:35;98508.34;;;9.81;100.00
23446;BME280;11895;48.738;9.320;2023-04-20T08:20:03;98506.50;;;9.64;100.00
23446;BME280;11895;48.738;9.320;2023-04-20T08:22:33;98509.97;;;9.47;100.00
23446;BME280;11895;48.738;9.320;2023-04-20T08:25:01;98513.03;;;9.59;100.00
23446;BME280;11895;48.738;9.320;2023-04-20T08:27:30;98514.56;;;9.45;100.00
23446;BME280;11895;48.738;9.320;2023-04-20T08:29:58;98507.50;;;9.62;100.00
23446;BME280;11895;48.738;9.320;2023-04-20T08:32:27;98515.34;;;9.85;100.00
23446;BME280;11895;48.738;9.320;2023-04-20T08:34:55;98516.53;;;9.61;100.00
23446;BME280;11895;48.738;9.320;2023-04-20T08:37:24;98515.16;;;9.33;100.00
23446;BME280;11895;48.738;9.320;2023-04-20T08:39:53;98513.91;;;9.40;100.00
23446;BME280;11895;48.738;9.320;2023-04-20T08:42:20;98512.91;;;8.83;100.00
23446;BME280;11895;48.738;9.320;2023-04-20T08:44:48;98514.84;;;9.00;100.00
23446;BME280;11895;48.738;9.320;2023-04-20T08:47:16;98510.25;;;9.22;100.00
23446;BME280;11895;48.738;9.320;2023-04-20T08:49:44;98514.53;;;9.26;100.00
23446;BME280;11895;48.738;9.320;2023-04-20T08:52:13;98509.91;;;8.91;100.00
23446;BME280;11895;48.738;9.320;2023-04-20T08:54:41;98510.25;;;8.63;100.00
23446;BME280;11895;48.738;9.320;2023-04-20T08:57:22;98512.22;;;8.98;100.00
23446;BME280;11895;48.738;9.320;2023-04-20T08:59:50;98508.91;;;9.12;100.00
23446;BME280;11895;48.738;9.320;2023-04-20T09:02:18;98505.47;;;9.29;100.00
23446;BME280;11895;48.738;9.320;2023-04-20T09:04:46;98504.31;;;9.53;100.00
23446;BME280;11895;48.738;9.320;2023-04-20T09:07:19;98510.56;;;9.54;100.00
23446;BME280;11895;48.738;9.320;2023-04-20T09:09:55;98502.84;;;9.65;100.00
23446;BME280;11895;48.738;9.320;2023-04-20T09:12:24;98495.72;;;9.45;100.00
23446;BME280;11895;48.738;9.320;2023-04-20T09:14:53;98495.06;;;9.78;100.00
23446;BME280;11895;48.738;9.320;2023-04-20T09:17:32;98487.03;;;9.95;100.00
23446;BME280;11895;48.738;9.320;2023-04-20T09:20:04;98491.00;;;10.05;100.00
23446;BME280;11895;48.738;9.320;2023-04-20T09:22:35;98488.31;;;9.88;100.00
23446;BME280;11895;48.738;9.320;2023-04-20T09:25:17;98478.13;;;10.31;100.00
23446;BME280;11895;48.738;9.320;2023-04-20T09:27:56;98472.44;;;10.54;100.00
23446;BME280;11895;48.738;9.320;2023-04-20T09:30:35;98477.63;;;10.58;100.00
23446;BME280;11895;48.738;9.320;2023-04-20T09:33:04;98478.03;;;10.67;100.00
23446;BME280;11895;48.738;9.320;2023-04-20T09:35:35;98486.44;;;10.78;100.00
23446;BME280;11895;48.738;9.320;2023-04-20T09:38:08;98488.56;;;10.72;100.00
23446;BME280;11895;48.738;9.320;2023-04-20T09:40:38;98481.75;;;10.47;100.00
23446;BME280;11895;48.738;9.320;2023-04-20T09:43:12;98477.88;;;9.99;100.00
23446;BME280;11895;48.738;9.320;2023-04-20T09:45:45;98479.66;;;10.18;100.00
23446;BME280;11895;48.738;9.320;2023-04-20T09:48:13;98478.91;;;10.33;100.00
23446;BME280;11895;48.738;9.320;2023-04-20T09:50:46;98479.06;;;10.47;100.00
23446;BME280;11895;48.738;9.320;2023-04-20T09:53:18;98481.94;;;10.44;100.00
23446;BME280;11895;48.738;9.320;2023-04-20T09:55:48;98479.22;;;10.62;100.00
23446;BME280;11895;48.738;9.320;2023-04-20T09:58:18;98477.50;;;10.61;100.00
23446;BME280;11895;48.738;9.320;2023-04-20T10:00:50;98476.56;;;10.44;100.00
23446;BME280;11895;48.738;9.320;2023-04-20T10:03:19;98484.47;;;10.47;100.00
23446;BME280;11895;48.738;9.320;2023-04-20T10:05:48;98490.38;;;10.00;100.00
23446;BME280;11895;48.738;9.320;2023-04-20T10:08:20;98483.06;;;10.21;100.00
23446;BME280;11895;48.738;9.320;2023-04-20T10:10:49;98487.31;;;10.44;100.00
23446;BME280;11895;48.738;9.320;2023-04-20T10:13:18;98485.75;;;10.40;100.00
23446;BME280;11895;48.738;9.320;2023-04-20T10:15:50;98486.03;;;10.34;100.00
23446;BME280;11895;48.738;9.320;2023-04-20T10:18:22;98489.09;;;9.90;100.00
23446;BME280;11895;48.738;9.320;2023-04-20T10:21:02;98479.59;;;9.83;100.00
23446;BME280;11895;48.738;9.320;2023-04-20T10:23:32;98480.16;;;9.71;100.00
23446;BME280;11895;48.738;9.320;2023-04-20T10:26:00;98478.00;;;9.79;100.00
23446;BME280;11895;48.738;9.320;2023-04-20T10:28:38;98468.94;;;9.99;100.00
23446;BME280;11895;48.738;9.320;2023-04-20T10:31:12;98473.75;;;9.92;100.00
23446;BME280;11895;48.738;9.320;2023-04-20T10:36:38;98460.81;;;10.18;100.00
23446;BME280;11895;48.738;9.320;2023-04-20T10:39:19;98459.41;;;10.11;100.00
23446;BME280;11895;48.738;9.320;2023-04-20T10:41:56;98463.44;;;9.83;100.00
23446;BME280;11895;48.738;9.320;2023-04-20T10:44:30;98453.97;;;9.93;100.00
23446;BME280;11895;48.738;9.320;2023-04-20T10:46:59;98444.91;;;10.13;100.00
23446;BME280;11895;48.738;9.320;2023-04-20T10:49:29;98445.81;;;10.31;100.00
23446;BME280;11895;48.738;9.320;2023-04-20T10:51:58;98431.72;;;10.26;100.00
23446;BME280;11895;48.738;9.320;2023-04-20T10:54:35;98426.94;;;10.48;100.00
23446;BME280;11895;48.738;9.320;2023-04-20T10:57:05;98429.50;;;10.69;100.00
23446;BME280;11895;48.738;9.320;2023-04-20T10:59:33;98419.91;;;10.28;100.00
23446;BME280;11895;48.738;9.320;2023-04-20T11:02:07;98418.88;;;10.48;100.00
23446;BME280;11895;48.738;9.320;2023-04-20T11:04:37;98413.69;;;10.09;100.00
23446;BME280;11895;48.738;9.320;2023-04-20T11:07:08;98400.97;;;10.47;100.00
23446;BME280;11895;48.738;9.320;2023-04-20T11:09:38;98403.94;;;10.76;100.00
23446;BME280;11895;48.738;9.320;2023-04-20T11:12:10;98395.59;;;11.14;100.00
23446;BME280;11895;48.738;9.320;2023-04-20T11:14:52;98390.09;;;10.99;100.00
23446;BME280;11895;48.738;9.320;2023-04-20T11:17:34;98388.94;;;11.37;100.00
23446;BME280;11895;48.738;9.320;2023-04-20T11:20:14;98372.28;;;11.76;100.00
23446;BME280;11895;48.738;9.320;2023-04-20T11:22:55;98366.34;;;12.45;100.00
23446;BME280;11895;48.738;9.320;2023-04-20T11:25:26;98364.75;;;12.27;100.00
23446;BME280;11895;48.738;9.320;2023-04-20T11:28:07;98360.09;;;11.69;100.00
23446;BME280;11895;48.738;9.320;2023-04-20T11:30:42;98367.25;;;11.22;100.00
23446;BME280;11895;48.738;9.320;2023-04-20T11:33:10;98369.88;;;11.24;100.00
23446;BME280;11895;48.738;9.320;2023-04-20T11:35:39;98366.06;;;11.28;100.00
23446;BME280;11895;48.738;9.320;2023-04-20T11:38:09;98366.75;;;11.47;100.00
23446;BME280;11895;48.738;9.320;2023-04-20T11:40:36;98379.16;;;11.34;100.00
23446;BME280;11895;48.738;9.320;2023-04-20T11:43:04;98374.53;;;11.36;100.00
23446;BME280;11895;48.738;9.320;2023-04-20T11:45:32;98364.44;;;10.92;100.00
23446;BME280;11895;48.738;9.320;2023-04-20T11:48:03;98371.00;;;10.71;100.00
23446;BME280;11895;48.738;9.320;2023-04-20T11:50:33;98367.59;;;11.16;100.00
23446;BME280;11895;48.738;9.320;2023-04-20T11:53:02;98377.34;;;10.70;100.00
23446;BME280;11895;48.738;9.320;2023-04-20T11:55:30;98385.16;;;10.41;100.00
23446;BME280;11895;48.738;9.320;2023-04-20T11:57:58;98378.25;;;10.53;100.00
23446;BME280;11895;48.738;9.320;2023-04-20T12:00:26;98381.16;;;10.14;100.00
23446;BME280;11895;48.738;9.320;2023-04-20T12:02:54;98391.66;;;10.54;100.00
23446;BME280;11895;48.738;9.320;2023-04-20T12:05:24;98383.84;;;10.66;100.00
23446;BME280;11895;48.738;9.320;2023-04-20T12:07:52;98389.63;;;10.91;100.00
23446;BME280;11895;48.738;9.320;2023-04-20T12:10:20;98389.38;;;10.63;100.00
23446;BME280;11895;48.738;9.320;2023-04-20T12:12:48;98394.19;;;10.40;100.00
23446;BME280;11895;48.738;9.320;2023-04-20T12:15:26;98381.19;;;10.48;100.00
23446;BME280;11895;48.738;9.320;2023-04-20T12:17:56;98386.41;;;10.69;100.00
23446;BME280;11895;48.738;9.320;2023-04-20T12:20:24;98391.44;;;10.75;100.00
23446;BME280;11895;48.738;9.320;2023-04-20T12:22:52;98388.28;;;11.16;100.00
23446;BME280;11895;48.738;9.320;2023-04-20T12:25:19;98383.97;;;10.80;100.00
23446;BME280;11895;48.738;9.320;2023-04-20T12:27:47;98384.00;;;10.63;100.00
23446;BME280;11895;48.738;9.320;2023-04-20T12:30:16;98383.38;;;10.91;100.00
23446;BME280;11895;48.738;9.320;2023-04-20T12:32:44;98372.25;;;10.97;100.00
23446;BME280;11895;48.738;9.320;2023-04-20T12:35:14;98377.00;;;10.76;100.00
23446;BME280;11895;48.738;9.320;2023-04-20T12:37:42;98385.16;;;11.07;100.00
23446;BME280;11895;48.738;9.320;2023-04-20T12:40:10;98381.16;;;11.15;100.00
23446;BME280;11895;48.738;9.320;2023-04-20T12:42:37;98380.66;;;11.24;100.00
23446;BME280;11895;48.738;9.320;2023-04-20T12:45:08;98374.06;;;10.47;100.00
23446;BME280;11895;48.738;9.320;2023-04-20T12:47:37;98382.97;;;10.65;100.00
23446;BME280;11895;48.738;9.320;2023-04-20T12:50:05;98374.19;;;10.62;100.00
23446;BME280;11895;48.738;9.320;2023-04-20T12:52:33;98374.78;;;10.51;100.00
23446;BME280;11895;48.738;9.320;2023-04-20T12:55:01;98373.09;;;10.81;100.00
23446;BME280;11895;48.738;9.320;2023-04-20T12:57:29;98366.34;;;10.90;100.00
23446;BME280;11895;48.738;9.320;2023-04-20T12:59:57;98364.41;;;10.76;100.00
23446;BME280;11895;48.738;9.320;2023-04-20T13:02:26;98371.88;;;10.71;100.00
23446;BME280;11895;48.738;9.320;2023-04-20T13:04:54;98362.78;;;10.57;100.00
23446;BME280;11895;48.738;9.320;2023-04-20T13:07:21;98367.28;;;10.40;100.00
23446;BME280;11895;48.738;9.320;2023-04-20T13:09:49;98360.63;;;10.30;100.00
23446;BME280;11895;48.738;9.320;2023-04-20T13:12:17;98360.69;;;10.28;100.00
23446;BME280;11895;48.738;9.320;2023-04-20T13:14:45;98363.28;;;10.13;100.00
23446;BME280;11895;48.738;9.320;2023-04-20T13:17:13;98364.22;;;9.94;100.00